createdAt,value
2018-05-31T00:02:09.018Z,8.67
2018-05-31T00:04:36.682Z,8.57
2018-05-31T00:07:04.371Z,8.37
2018-05-31T00:09:32.007Z,8.63
2018-05-31T00:11:59.724Z,9.03
2018-05-31T00:14:27.365Z,8.50
2018-05-31T00:16:55.075Z,8.80
2018-05-31T00:19:22.730Z,8.20
2018-05-31T00:21:50.410Z,8.73
2018-05-31T00:24:18.048Z,8.67
2018-05-31T00:26:45.730Z,8.47
2018-05-31T00:29:13.370Z,8.27
2018-05-31T00:31:41.049Z,8.50
2018-05-31T00:34:08.678Z,8.20
2018-05-31T00:36:36.359Z,8.33
2018-05-31T00:39:04.123Z,8.30
2018-05-31T00:41:31.806Z,8.77
2018-05-31T00:43:59.440Z,7.87
2018-05-31T00:46:27.976Z,8.13
2018-05-31T00:48:55.616Z,8.40
2018-05-31T00:51:23.326Z,8.60
2018-05-31T00:53:50.958Z,8.13
2018-05-31T00:56:19.450Z,7.90
2018-05-31T00:58:47.849Z,8.83
2018-05-31T01:01:15.529Z,8.57
2018-05-31T01:03:43.926Z,7.93
2018-05-31T01:06:11.604Z,6.93
2018-05-31T01:08:39.251Z,7.67
2018-05-31T01:11:07.690Z,7.97
2018-05-31T01:13:35.382Z,8.10
2018-05-31T01:16:03.021Z,7.83
2018-05-31T01:18:30.693Z,7.03
2018-05-31T01:20:58.357Z,7.53
2018-05-31T01:23:26.034Z,8.07
2018-05-31T01:25:53.678Z,7.50
2018-05-31T01:28:22.146Z,7.47
2018-05-31T01:30:49.781Z,7.80
2018-05-31T01:33:17.486Z,7.47
2018-05-31T01:35:45.126Z,7.40
2018-05-31T01:38:24.509Z,7.93
2018-05-31T01:40:52.146Z,7.27
2018-05-31T01:43:19.833Z,8.23
2018-05-31T01:45:47.502Z,6.67
2018-05-31T01:48:15.178Z,7.03
2018-05-31T01:50:42.805Z,6.83
2018-05-31T01:53:10.506Z,7.00
2018-05-31T01:55:38.157Z,7.80
2018-05-31T01:58:06.614Z,7.50
2018-05-31T02:00:34.258Z,7.27
2018-05-31T02:03:01.933Z,6.97
2018-05-31T02:05:29.565Z,6.77
2018-05-31T02:07:57.257Z,7.77
2018-05-31T02:10:25.658Z,7.00
2018-05-31T02:12:53.329Z,6.70
2018-05-31T02:15:21.745Z,7.20
2018-05-31T02:17:49.425Z,7.90
2018-05-31T02:20:17.071Z,7.47
2018-05-31T02:22:44.776Z,6.90
2018-05-31T02:25:12.411Z,7.67
2018-05-31T02:27:40.862Z,7.00
2018-05-31T02:30:08.523Z,7.30
2018-05-31T02:32:36.147Z,7.00
2018-05-31T02:35:03.765Z,6.43
2018-05-31T02:37:31.395Z,6.73
2018-05-31T02:39:59.744Z,7.70
2018-05-31T02:42:27.346Z,7.50
2018-05-31T02:44:54.980Z,6.80
2018-05-31T02:47:22.559Z,7.70
2018-05-31T02:49:50.178Z,6.67
2018-05-31T02:52:18.542Z,7.23
2018-05-31T02:54:46.174Z,7.13
2018-05-31T02:57:13.827Z,7.27
2018-05-31T02:59:41.464Z,7.27
2018-05-31T03:02:09.060Z,6.77
2018-05-31T03:04:37.447Z,7.07
2018-05-31T03:07:05.819Z,6.60
2018-05-31T03:09:34.235Z,7.27
2018-05-31T03:12:02.615Z,7.27
2018-05-31T03:14:30.258Z,7.37
2018-05-31T03:16:57.862Z,6.83
2018-05-31T03:19:26.263Z,6.80
2018-05-31T03:21:54.623Z,6.73
2018-05-31T03:24:22.252Z,6.30
2018-05-31T03:26:49.864Z,6.87
2018-05-31T03:29:17.500Z,7.60
2018-05-31T03:31:45.100Z,7.40
2018-05-31T03:34:12.731Z,7.20
2018-05-31T03:36:40.320Z,6.77
2018-05-31T03:39:07.963Z,7.60
2018-05-31T03:41:36.331Z,6.67
2018-05-31T03:44:03.971Z,7.20
2018-05-31T03:46:31.559Z,7.00
2018-05-31T03:48:59.185Z,7.10
2018-05-31T03:51:26.782Z,6.67
2018-05-31T03:53:54.419Z,6.33
2018-05-31T03:56:22.778Z,6.77
2018-05-31T03:58:50.375Z,6.87
2018-05-31T04:01:18.764Z,6.90
2018-05-31T04:03:46.355Z,6.77
2018-05-31T04:06:14.007Z,6.17
2018-05-31T04:08:41.601Z,7.27
2018-05-31T04:11:09.239Z,6.97
2018-05-31T04:13:36.839Z,7.43
2018-05-31T04:16:04.480Z,7.20
2018-05-31T04:18:32.086Z,7.20
2018-05-31T04:21:00.487Z,7.00
2018-05-31T04:23:28.075Z,6.60
2018-05-31T04:25:55.703Z,7.73
2018-05-31T04:28:23.291Z,6.90
2018-05-31T04:30:51.690Z,6.33
2018-05-31T04:33:20.047Z,6.37
2018-05-31T04:35:47.684Z,6.53
2018-05-31T04:38:15.279Z,6.23
2018-05-31T04:40:43.763Z,6.70
2018-05-31T04:43:12.887Z,6.50
2018-05-31T04:45:40.517Z,6.20
2018-05-31T04:48:08.114Z,6.73
2018-05-31T04:50:36.524Z,6.57
2018-05-31T04:53:04.111Z,6.83
2018-05-31T04:55:31.740Z,7.40
2018-05-31T04:57:59.355Z,6.60
2018-05-31T05:00:27.207Z,6.43
2018-05-31T05:02:54.850Z,6.53
2018-05-31T05:05:22.658Z,6.80
2018-05-31T05:07:50.239Z,6.67
2018-05-31T05:10:17.883Z,6.27
2018-05-31T05:12:46.262Z,6.57
2018-05-31T05:15:14.874Z,6.13
2018-05-31T05:17:42.493Z,6.23
2018-05-31T05:20:10.332Z,6.30
2018-05-31T05:22:37.922Z,6.40
2018-05-31T05:25:05.530Z,6.07
2018-05-31T05:27:33.159Z,6.03
2018-05-31T05:30:00.747Z,7.03
2018-05-31T05:32:28.421Z,6.37
2018-05-31T05:34:55.988Z,6.20
2018-05-31T05:37:23.620Z,5.43
2018-05-31T05:39:51.974Z,5.80
2018-05-31T05:42:19.602Z,5.77
2018-05-31T05:44:47.204Z,6.27
2018-05-31T05:47:14.838Z,6.03
2018-05-31T05:49:42.452Z,6.73
2018-05-31T05:52:10.097Z,6.67
2018-05-31T05:54:37.692Z,5.67
2018-05-31T05:57:05.311Z,6.23
2018-05-31T05:59:33.670Z,6.03
2018-05-31T06:02:01.344Z,5.43
2018-05-31T06:04:28.951Z,5.97
2018-05-31T06:06:57.351Z,5.93
2018-05-31T06:09:24.960Z,5.67
2018-05-31T06:11:52.599Z,6.20
2018-05-31T06:14:20.951Z,5.37
2018-05-31T06:16:49.362Z,5.83
2018-05-31T06:19:16.952Z,5.80
2018-05-31T06:21:44.582Z,5.40
2018-05-31T06:24:12.307Z,5.50
2018-05-31T06:26:39.935Z,5.70
2018-05-31T06:29:07.544Z,5.10
2018-05-31T06:31:35.935Z,5.20
2018-05-31T06:34:04.288Z,5.17
2018-05-31T06:36:31.915Z,5.23
2018-05-31T06:38:59.496Z,5.57
2018-05-31T06:41:27.158Z,5.63
2018-05-31T06:43:54.723Z,5.87
2018-05-31T06:46:23.103Z,5.47
2018-05-31T06:48:50.683Z,5.53
2018-05-31T06:51:19.062Z,5.30
2018-05-31T06:53:46.647Z,5.53
2018-05-31T06:56:14.996Z,5.30
2018-05-31T06:58:43.383Z,5.63
2018-05-31T07:01:10.962Z,4.97
2018-05-31T07:03:38.575Z,5.50
2018-05-31T07:06:06.961Z,5.80
2018-05-31T07:08:35.359Z,5.87
2018-05-31T07:11:03.710Z,5.47
2018-05-31T07:13:32.087Z,5.00
2018-05-31T07:15:59.693Z,5.20
2018-05-31T07:18:28.351Z,5.60
2018-05-31T07:20:55.931Z,5.37
2018-05-31T07:23:23.572Z,5.30
2018-05-31T07:25:51.175Z,5.27
2018-05-31T07:28:18.792Z,5.80
2018-05-31T07:30:47.179Z,5.37
2018-05-31T07:33:14.792Z,6.07
2018-05-31T07:35:42.374Z,5.80
2018-05-31T07:38:09.997Z,6.63
2018-05-31T07:40:37.603Z,5.47
2018-05-31T07:43:05.214Z,6.53
2018-05-31T07:45:32.968Z,6.00
2018-05-31T07:48:00.578Z,6.77
2018-05-31T07:50:28.685Z,7.37
2018-05-31T07:52:56.307Z,7.03
2018-05-31T07:55:23.888Z,6.93
2018-05-31T07:57:51.517Z,6.87
2018-05-31T08:00:20.109Z,7.03
2018-05-31T08:02:47.744Z,7.27
2018-05-31T08:05:15.517Z,7.17
2018-05-31T08:07:43.147Z,6.80
2018-05-31T08:10:11.491Z,6.97
2018-05-31T08:12:39.104Z,6.87
2018-05-31T08:15:07.456Z,7.77
2018-05-31T08:17:35.062Z,6.77
2018-05-31T08:20:03.995Z,7.70
2018-05-31T08:22:31.606Z,6.93
2018-05-31T08:24:59.187Z,7.33
2018-05-31T08:27:26.799Z,6.40
2018-05-31T08:29:54.375Z,6.53
2018-05-31T08:32:21.951Z,6.90
2018-05-31T08:34:49.565Z,6.13
2018-05-31T08:37:17.148Z,6.50
2018-05-31T08:39:44.763Z,6.87
2018-05-31T08:42:12.347Z,6.63
2018-05-31T08:44:39.967Z,6.50
2018-05-31T08:47:07.550Z,6.50
2018-05-31T08:49:35.162Z,6.50
2018-05-31T08:52:02.741Z,7.03
2018-05-31T08:54:30.387Z,6.43
2018-05-31T08:56:58.739Z,6.37
2018-05-31T08:59:26.360Z,6.60
2018-05-31T09:01:53.942Z,6.47
2018-05-31T09:04:21.554Z,6.23
2018-05-31T09:06:49.131Z,6.37
2018-05-31T09:09:16.757Z,6.50
2018-05-31T09:11:44.348Z,6.77
2018-05-31T09:14:11.967Z,6.07
2018-05-31T09:16:39.544Z,6.43
2018-05-31T09:19:07.160Z,6.80
2018-05-31T09:21:34.740Z,6.47
2018-05-31T09:24:02.362Z,6.33
2018-05-31T09:26:29.947Z,6.97
2018-05-31T09:28:58.332Z,6.17
2018-05-31T09:31:26.679Z,6.40
2018-05-31T09:33:54.302Z,6.83
2018-05-31T09:36:22.723Z,6.30
2018-05-31T09:38:50.331Z,6.47
2018-05-31T09:41:17.908Z,6.50
2018-05-31T09:43:45.527Z,6.40
2018-05-31T09:46:13.111Z,6.43
2018-05-31T09:48:40.724Z,7.00
2018-05-31T09:51:08.303Z,6.90
2018-05-31T09:53:37.435Z,6.43
2018-05-31T09:56:05.783Z,6.20
2018-05-31T09:58:33.395Z,6.80
2018-05-31T10:01:01.747Z,6.83
2018-05-31T10:03:29.555Z,6.40
2018-05-31T10:05:57.140Z,6.50
2018-05-31T10:08:25.491Z,6.90
2018-05-31T10:10:53.106Z,6.50
2018-05-31T10:13:21.455Z,6.57
2018-05-31T10:15:49.068Z,6.30
2018-05-31T10:18:17.411Z,6.07
2018-05-31T10:20:45.028Z,6.67
2018-05-31T10:23:13.379Z,6.43
2018-05-31T10:25:41.002Z,6.57
2018-05-31T10:28:09.342Z,7.40
2018-05-31T10:30:37.040Z,6.20
2018-05-31T10:33:04.619Z,6.80
2018-05-31T10:35:33.276Z,6.03
2018-05-31T10:38:00.854Z,6.93
2018-05-31T10:40:28.470Z,6.37
2018-05-31T10:42:56.815Z,7.23
2018-05-31T10:45:24.803Z,6.20
2018-05-31T10:47:52.383Z,6.57
2018-05-31T10:50:20.254Z,6.23
2018-05-31T10:52:47.835Z,6.83
2018-05-31T10:55:15.456Z,6.40
2018-05-31T10:57:43.035Z,6.50
2018-05-31T11:00:10.900Z,6.50
2018-05-31T11:02:39.242Z,6.77
2018-05-31T11:05:07.121Z,6.53
2018-05-31T11:07:34.707Z,6.70
2018-05-31T11:10:02.323Z,6.40
2018-05-31T11:12:30.855Z,6.63
2018-05-31T11:14:58.482Z,6.70
2018-05-31T11:17:26.083Z,6.10
2018-05-31T11:19:53.815Z,6.60
2018-05-31T11:22:21.398Z,6.80
2018-05-31T11:24:49.780Z,6.50
2018-05-31T11:27:17.363Z,6.60
2018-05-31T11:29:45.744Z,6.77
2018-05-31T11:32:13.322Z,6.03
2018-05-31T11:34:41.715Z,6.80
2018-05-31T11:37:10.144Z,6.87
2018-05-31T11:39:37.724Z,6.70
2018-05-31T11:42:05.340Z,6.47
2018-05-31T11:44:33.688Z,6.30
2018-05-31T11:47:01.308Z,6.83
2018-05-31T11:49:29.654Z,5.87
2018-05-31T11:51:57.319Z,6.57
2018-05-31T11:54:24.903Z,6.53
2018-05-31T11:56:52.511Z,6.53
2018-05-31T11:59:20.100Z,6.43
2018-05-31T12:01:48.554Z,6.30
2018-05-31T12:04:16.903Z,6.00
2018-05-31T12:06:44.524Z,6.27
2018-05-31T12:09:12.171Z,5.90
2018-05-31T12:11:39.833Z,6.47
2018-05-31T12:14:07.430Z,6.23
2018-05-31T12:16:35.064Z,6.17
2018-05-31T12:19:03.735Z,5.93
2018-05-31T12:21:32.115Z,6.50
2018-05-31T12:23:59.700Z,6.03
2018-05-31T12:26:28.083Z,5.93
2018-05-31T12:28:55.672Z,6.20
2018-05-31T12:31:23.296Z,6.57
2018-05-31T12:33:50.882Z,6.20
2018-05-31T12:36:18.495Z,6.17
2018-05-31T12:38:46.844Z,6.30
2018-05-31T12:41:14.470Z,5.63
2018-05-31T12:43:42.070Z,6.50
2018-05-31T12:46:09.707Z,6.43
2018-05-31T12:48:38.051Z,6.40
2018-05-31T12:51:05.679Z,5.77
2018-05-31T12:53:34.031Z,5.80
2018-05-31T12:56:01.669Z,6.00
2018-05-31T12:58:29.256Z,6.23
2018-05-31T13:00:56.875Z,5.70
2018-05-31T13:03:25.243Z,6.37
2018-05-31T13:05:52.882Z,6.37
2018-05-31T13:08:21.246Z,6.03
2018-05-31T13:10:48.834Z,6.33
2018-05-31T13:13:16.452Z,5.90
2018-05-31T13:15:44.040Z,5.83
2018-05-31T13:18:11.668Z,5.67
2018-05-31T13:20:39.259Z,5.87
2018-05-31T13:23:06.882Z,5.63
2018-05-31T13:25:35.228Z,5.60
2018-05-31T13:28:02.855Z,5.50
2018-05-31T13:30:30.611Z,5.23
2018-05-31T13:32:58.994Z,6.00
2018-05-31T13:35:27.748Z,5.87
2018-05-31T13:37:55.559Z,5.40
2018-05-31T13:40:23.199Z,5.83
2018-05-31T13:42:50.824Z,5.93
2018-05-31T13:45:19.355Z,5.87
2018-05-31T13:47:46.975Z,5.40
2018-05-31T13:50:14.790Z,5.10
2018-05-31T13:52:43.175Z,5.40
2018-05-31T13:55:11.523Z,5.40
2018-05-31T13:57:39.139Z,5.23
2018-05-31T14:00:07.483Z,6.10
2018-05-31T14:02:35.111Z,5.03
2018-05-31T14:05:03.718Z,5.30
2018-05-31T14:07:31.360Z,5.30
2018-05-31T14:09:59.704Z,5.90
2018-05-31T14:12:27.320Z,5.50
2018-05-31T14:14:54.898Z,5.30
2018-05-31T14:17:22.515Z,5.77
2018-05-31T14:19:50.100Z,5.57
2018-05-31T14:22:17.723Z,5.80
2018-05-31T14:24:46.067Z,5.40
2018-05-31T14:27:13.688Z,5.97
2018-05-31T14:29:42.043Z,5.90
2018-05-31T14:32:09.655Z,5.90
2018-05-31T14:34:37.999Z,5.60
2018-05-31T14:37:05.622Z,5.20
2018-05-31T14:39:33.963Z,5.67
2018-05-31T14:42:01.580Z,5.00
2018-05-31T14:44:29.927Z,4.87
2018-05-31T14:46:57.504Z,5.40
2018-05-31T14:49:25.123Z,5.50
2018-05-31T14:51:53.473Z,5.13
2018-05-31T14:54:21.116Z,4.97
2018-05-31T14:56:48.808Z,5.07
2018-05-31T14:59:16.430Z,5.33
2018-05-31T15:01:44.948Z,5.07
2018-05-31T15:04:12.622Z,5.90
2018-05-31T15:06:40.947Z,5.40
2018-05-31T15:09:08.566Z,5.70
2018-05-31T15:11:36.160Z,4.80
2018-05-31T15:14:03.775Z,5.63
2018-05-31T15:16:31.366Z,4.80
2018-05-31T15:19:00.173Z,5.20
2018-05-31T15:21:27.796Z,4.33
2018-05-31T15:23:55.411Z,5.00
2018-05-31T15:26:23.764Z,5.17
2018-05-31T15:28:51.386Z,5.23
2018-05-31T15:31:19.728Z,4.77
2018-05-31T15:33:47.345Z,5.53
2018-05-31T15:36:15.695Z,5.33
2018-05-31T15:38:43.340Z,5.27
2018-05-31T15:41:10.948Z,4.87
2018-05-31T15:43:38.583Z,4.77
2018-05-31T15:46:06.163Z,5.23
2018-05-31T15:48:33.788Z,4.83
2018-05-31T15:51:01.379Z,5.33
2018-05-31T15:53:29.768Z,5.20
2018-05-31T15:55:57.376Z,4.90
2018-05-31T15:58:25.000Z,4.80
2018-05-31T16:00:52.583Z,6.00
2018-05-31T16:03:20.968Z,5.73
2018-05-31T16:05:49.370Z,5.37
2018-05-31T16:08:17.758Z,5.93
2018-05-31T16:10:46.103Z,5.37
2018-05-31T16:13:13.679Z,5.70
2018-05-31T16:15:41.438Z,5.90
2018-05-31T16:18:09.011Z,6.47
2018-05-31T16:20:36.623Z,6.70
2018-05-31T16:23:04.211Z,5.77
2018-05-31T16:25:33.540Z,6.07
2018-05-31T16:28:01.886Z,5.97
2018-05-31T16:30:29.913Z,5.47
2018-05-31T16:32:58.259Z,5.20
2018-05-31T16:35:26.136Z,4.90
2018-05-31T16:37:54.528Z,5.07
2018-05-31T16:40:22.143Z,4.40
2018-05-31T16:42:50.487Z,5.20
2018-05-31T16:45:18.304Z,4.80
2018-05-31T16:47:46.647Z,5.13
2018-05-31T16:50:14.500Z,5.20
2018-05-31T16:52:42.093Z,6.10
2018-05-31T16:55:09.712Z,4.83
2018-05-31T16:57:37.286Z,5.20
2018-05-31T17:00:05.281Z,4.90
2018-05-31T17:02:33.627Z,5.70
2018-05-31T17:05:01.245Z,5.77
2018-05-31T17:07:29.594Z,5.37
2018-05-31T17:09:57.971Z,5.70
2018-05-31T17:12:25.574Z,5.30
2018-05-31T17:14:53.194Z,5.17
2018-05-31T17:17:20.814Z,5.70
2018-05-31T17:19:48.427Z,5.03
2018-05-31T17:22:16.007Z,5.57
2018-05-31T17:24:43.623Z,5.37
2018-05-31T17:27:11.199Z,5.87
2018-05-31T17:29:38.819Z,6.10
2018-05-31T17:32:06.399Z,6.13
2018-05-31T17:34:34.021Z,6.77
2018-05-31T17:37:01.613Z,6.47
2018-05-31T17:39:29.231Z,6.87
2018-05-31T17:41:56.884Z,6.20
2018-05-31T17:44:24.501Z,6.50
2018-05-31T17:46:52.151Z,6.20
2018-05-31T17:49:19.777Z,5.70
2018-05-31T17:51:47.399Z,7.10
2018-05-31T17:54:14.989Z,8.57
2018-05-31T17:56:42.618Z,8.77
2018-05-31T17:59:10.963Z,7.20
2018-05-31T18:01:38.576Z,7.43
2018-05-31T18:04:06.919Z,8.30
2018-05-31T18:06:34.900Z,8.90
2018-05-31T18:09:02.510Z,9.83
2018-05-31T18:11:30.898Z,8.97
2018-05-31T18:13:58.478Z,8.80
2018-05-31T18:16:27.347Z,10.53
2018-05-31T18:18:54.936Z,9.10
2018-05-31T18:21:22.566Z,7.00
2018-05-31T18:23:50.151Z,7.50
2018-05-31T18:26:17.764Z,7.23
2018-05-31T18:28:46.112Z,6.30
2018-05-31T18:31:13.735Z,7.43
2018-05-31T18:33:42.079Z,5.97
2018-05-31T18:36:09.697Z,6.20
2018-05-31T18:38:38.043Z,6.53
2018-05-31T18:41:05.659Z,6.30
2018-05-31T18:43:33.999Z,6.87
2018-05-31T18:46:01.615Z,6.53
2018-05-31T18:48:29.197Z,5.83
2018-05-31T18:50:57.574Z,5.93
2018-05-31T18:53:25.150Z,5.77
2018-05-31T18:55:52.774Z,6.20
2018-05-31T18:58:20.361Z,7.70
2018-05-31T19:00:47.983Z,7.57
2018-05-31T19:03:16.327Z,6.00
2018-05-31T19:05:44.710Z,7.13
2018-05-31T19:08:12.288Z,7.03
2018-05-31T19:10:39.903Z,7.13
2018-05-31T19:13:13.880Z,6.50
2018-05-31T19:15:42.223Z,6.00
2018-05-31T19:18:16.334Z,5.90
2018-05-31T19:20:44.743Z,8.10
2018-05-31T19:23:12.519Z,9.10
2018-05-31T19:25:41.456Z,8.60
2018-05-31T19:28:10.183Z,7.43
2018-05-31T19:30:43.559Z,8.73
2018-05-31T19:33:11.175Z,7.93
2018-05-31T19:35:44.341Z,6.37
2018-05-31T19:38:11.959Z,6.53
2018-05-31T19:40:40.307Z,7.33
2018-05-31T19:43:13.524Z,6.03
2018-05-31T19:45:41.110Z,6.60
2018-05-31T19:48:08.726Z,7.10
2018-05-31T19:50:36.308Z,6.40
2018-05-31T19:56:07.747Z,6.57
2018-05-31T19:58:41.035Z,6.53
2018-05-31T20:01:14.225Z,6.20
2018-05-31T20:03:41.979Z,6.47
2018-05-31T20:06:09.560Z,6.37
2018-05-31T20:08:37.175Z,6.40
2018-05-31T20:11:04.800Z,6.90
2018-05-31T20:13:32.418Z,6.07
2018-05-31T20:15:59.994Z,7.03
2018-05-31T20:18:27.607Z,6.03
2018-05-31T20:20:55.948Z,6.90
2018-05-31T20:23:23.561Z,6.00
2018-05-31T20:25:51.903Z,6.53
2018-05-31T20:28:19.515Z,7.10
2018-05-31T20:30:47.892Z,9.33
2018-05-31T20:33:15.528Z,11.07
2018-05-31T20:35:43.115Z,10.77
2018-05-31T20:38:10.736Z,11.13
2018-05-31T20:40:39.092Z,10.37
2018-05-31T20:43:06.716Z,10.60
2018-05-31T20:45:34.365Z,11.30
2018-05-31T20:48:02.742Z,9.03
2018-05-31T20:50:30.587Z,8.77
2018-05-31T20:52:58.202Z,9.83
2018-05-31T20:55:25.783Z,10.40
2018-05-31T20:57:54.167Z,11.07
2018-05-31T21:00:22.519Z,10.23
2018-05-31T21:02:50.137Z,10.47
2018-05-31T21:05:18.486Z,9.70
2018-05-31T21:07:46.098Z,8.07
2018-05-31T21:10:14.446Z,8.27
2018-05-31T21:12:42.827Z,7.87
2018-05-31T21:15:10.399Z,7.23
2018-05-31T21:17:38.023Z,8.67
2018-05-31T21:20:06.391Z,6.90
2018-05-31T21:22:33.983Z,9.00
2018-05-31T21:25:02.363Z,7.60
2018-05-31T21:27:29.955Z,7.60
2018-05-31T21:29:58.339Z,7.70
2018-05-31T21:32:26.682Z,7.70
2018-05-31T21:34:54.297Z,6.90
2018-05-31T21:37:22.644Z,6.93
2018-05-31T21:39:50.259Z,6.47
2018-05-31T21:42:18.603Z,6.93
2018-05-31T21:44:46.227Z,8.63
2018-05-31T21:47:14.595Z,8.03
2018-05-31T21:49:42.216Z,6.47
2018-05-31T21:52:09.795Z,7.03
2018-05-31T21:54:37.406Z,9.00
2018-05-31T21:57:04.986Z,8.77
2018-05-31T21:59:32.599Z,8.67
2018-05-31T22:02:00.183Z,8.90
2018-05-31T22:04:27.794Z,7.60
2018-05-31T22:06:56.172Z,7.40
2018-05-31T22:09:23.787Z,7.77
2018-05-31T22:11:52.132Z,7.00
2018-05-31T22:14:19.749Z,6.97
2018-05-31T22:16:48.091Z,6.90
2018-05-31T22:19:15.691Z,7.27
2018-05-31T22:21:43.315Z,7.00
2018-05-31T22:24:10.899Z,6.13
2018-05-31T22:26:38.514Z,6.70
2018-05-31T22:29:06.096Z,6.37
2018-05-31T22:31:34.471Z,6.10
2018-05-31T22:34:02.048Z,6.53
2018-05-31T22:36:29.669Z,6.10
2018-05-31T22:38:57.261Z,6.50
2018-05-31T22:41:24.871Z,5.57
2018-05-31T22:43:52.447Z,6.20
2018-05-31T22:46:20.060Z,6.10
2018-05-31T22:48:47.639Z,5.70
2018-05-31T22:51:15.252Z,5.80
2018-05-31T22:53:42.835Z,6.60
2018-05-31T22:56:10.456Z,7.40
2018-05-31T22:58:38.043Z,11.90
2018-05-31T23:01:05.659Z,12.30
2018-05-31T23:03:34.011Z,14.27
2018-05-31T23:06:01.643Z,14.93
2018-05-31T23:08:34.979Z,18.80
2018-05-31T23:11:02.590Z,19.57
2018-05-31T23:13:30.175Z,18.27
2018-05-31T23:15:58.558Z,17.77
2018-05-31T23:18:26.166Z,18.93
2018-05-31T23:20:53.806Z,19.73
2018-05-31T23:23:21.440Z,21.97
2018-05-31T23:25:49.034Z,21.30
2018-05-31T23:28:16.623Z,20.10
2018-05-31T23:30:44.980Z,19.10
2018-05-31T23:33:12.627Z,19.83
2018-05-31T23:35:40.243Z,18.30
2018-05-31T23:38:07.863Z,18.33
2018-05-31T23:40:35.441Z,18.60
2018-05-31T23:43:03.076Z,17.07
2018-05-31T23:45:30.666Z,16.70
2018-05-31T23:47:59.052Z,16.63
2018-05-31T23:50:27.398Z,16.00
2018-05-31T23:52:55.031Z,15.20
2018-05-31T23:55:22.618Z,14.93
2018-05-31T23:57:50.238Z,12.90
